KMRC/MRC METAR and TAF weather

Enter ICAO airport designator
Station Type Date Time Source
KMRC METAR 2021/09/26 21:00 UTC NOAA

KMRC 262100Z AUTO 00000KT 9SM CLR 27/09 A3007 RMK A01


Station Type Date Time Source
KMRC Decoded METAR 2021/09/26 21:00 UTC NOAA

Columbia / Maury County, TN, United States (KMRC) 35-33N 087-11W
Sep 26, 2021 - 05:00 PM EDT / 2021.09.26 2100 UTC
Wind: Calm:0
Visibility: 9 mile(s):0
Sky conditions: clear
Temperature: 80 F (27 C)
Dew Point: 48 F (9 C)
Relative Humidity: 32%
Pressure (altimeter): 30.07 in. Hg (1018 hPa)
ob: KMRC 262100Z AUTO 00000KT 9SM CLR 27/09 A3007 RMK A01
cycle: 21

Station Type Date Time Source
KMRC TAF 2009/08/31 19:45 UTC NOAA

METAR KMRC 311945Z AUTO 06008KT 10SM CLR 26/12 A3010
RMK AO1 T02550116 $

Example: see airport list